Latest Weather Observations for Parawa West

IDS60901

Issued at 4:21 pm CST Sunday 28 May 2017 (issued every 10 minutes, with the page automatically refreshed every 10 minutes)

About weather observations | Map of Adelaide area stations | Latest observations for Adelaide area | Other Formats
Station Details ID: 023875 Name: SECOND VALLEY FOREST AWS Lat: -35.57 Lon: 138.29 Height: 341.0 m
Data from the previous 72 hours. | See also: Recent months at Parawa West
Date/Time
CST
Temp
°C
App
Temp
°C
Dew
Point
°C
Rel
Hum
%
Delta-T
°C
Wind Press
QNH
hPa
Press
MSL
hPa
Rain since
9am
mm
Dir  Spd
km/h
Gust
km/h
Spd
kts
Gust
kts
28/04:00pm 9.2 6.5 7.5 89 0.8 SW 11 17 6 9 1015.6 1015.5 2.4
28/03:30pm 9.5 5.8 7.9 90 0.8 SW 17 30 9 16 1015.4 1015.2 2.4
28/03:00pm 10.2 5.8 7.6 84 1.3 WSW 20 30 11 16 1014.9 1014.7 2.2
28/02:30pm 9.7 6.0 8.0 89 0.8 WSW 17 30 9 16 1014.7 1014.5 2.0
28/02:00pm 10.6 7.2 7.8 83 1.4 SW 15 24 8 13 1014.5 1014.3 1.2
28/01:30pm 9.2 4.2 6.5 83 1.3 SW 22 35 12 19 1014.3 1014.1 1.2
28/01:00pm 10.6 5.0 7.1 79 1.7 WSW 26 44 14 24 1014.0 1013.9 0.0
28/12:30pm 10.7 5.4 7.0 78 1.8 W 24 37 13 20 1013.9 1013.8 0.0
28/12:00pm 10.9 5.6 7.0 77 1.9 WSW 24 39 13 21 1014.0 1013.9 0.0
28/11:30am 10.7 5.9 7.2 79 1.7 WSW 22 33 12 18 1014.4 1014.2 0.0
28/11:00am 10.9 6.2 7.8 81 1.5 W 22 37 12 20 1014.3 1014.1 0.0
28/10:30am 10.8 6.1 7.7 81 1.5 WSW 22 35 12 19 1014.2 1014.0 0.0
28/10:00am 10.4 6.1 7.8 84 1.3 W 20 35 11 19 1014.0 1013.9 0.0
28/09:30am 9.3 5.2 7.7 90 0.8 W 19 32 10 17 1013.9 1013.8 0.0
28/09:00am 10.0 4.8 7.4 84 1.3 W 24 33 13 18 1013.4 1013.3 11.6
28/08:30am 9.3 4.9 7.3 87 1.0 W 20 33 11 18 1013.1 1013.0 11.6
28/08:00am 9.1 4.7 6.5 84 1.2 W 19 26 10 14 1013.1 1013.0 11.6
28/07:30am 8.9 4.4 6.3 84 1.2 W 19 32 10 17 1012.8 1012.6 11.6
28/07:00am 8.8 5.2 6.9 88 0.9 W 15 26 8 14 1012.7 1012.5 11.6
28/06:30am 8.7 5.5 6.8 88 0.9 W 13 24 7 13 1012.5 1012.3 11.6
28/06:00am 8.7 5.5 6.7 87 0.9 W 13 22 7 12 1012.3 1012.1 11.6
28/05:30am 9.0 5.4 6.6 85 1.1 W 15 22 8 12 1012.1 1011.9 11.6
28/05:00am 8.9 5.6 6.3 84 1.2 WNW 13 19 7 10 1012.0 1011.8 11.6
28/04:30am 8.5 5.2 6.3 86 1.0 WNW 13 24 7 13 1011.8 1011.6 11.6
28/04:00am 8.0 5.1 6.6 91 0.7 WNW 11 19 6 10 1011.8 1011.6 11.6
28/03:30am 8.2 5.0 6.7 90 0.7 W 13 20 7 11 1011.9 1011.7 11.6
28/03:00am 8.3 5.0 6.4 88 0.9 W 13 20 7 11 1012.3 1012.1 11.6
28/02:30am 8.9 4.8 6.2 83 1.3 WSW 17 28 9 15 1012.5 1012.3 11.6
28/02:00am 8.8 5.6 6.9 88 0.9 W 13 22 7 12 1012.5 1012.3 11.6
28/01:30am 8.8 5.9 6.6 86 1.0 W 11 19 6 10 1012.5 1012.3 11.6
28/01:00am 9.1 5.5 6.7 85 1.1 W 15 24 8 13 1012.5 1012.3 11.6
28/12:30am 8.5 4.8 6.3 86 1.0 W 15 20 8 11 1012.5 1012.3 11.6
28/12:00am 8.7 5.1 6.7 87 0.9 W 15 22 8 12 1012.4 1012.2 11.6
 
Date/Time
CST
Temp
°C
App
Temp
°C
Dew
Point
°C
Rel
Hum
%
Delta-T
°C
Wind Press
QNH
hPa
Press
MSL
hPa
Rain since
9am
mm
Dir  Spd
km/h
Gust
km/h
Spd
kts
Gust
kts
27/11:30pm 8.8 5.2 6.6 86 1.0 W 15 20 8 11 1012.4 1012.2 11.6
27/11:00pm 8.9 5.8 7.4 90 0.7 W 13 17 7 9 1012.3 1012.1 11.6
27/10:30pm 8.8 5.3 7.4 91 0.7 W 15 22 8 12 1012.3 1012.1 11.6
27/10:00pm 9.0 5.6 7.6 91 0.7 W 15 22 8 12 1012.3 1012.1 11.6
27/09:30pm 9.2 5.1 8.0 92 0.6 WSW 19 26 10 14 1012.1 1011.9 11.6
27/09:00pm 9.7 6.2 8.9 95 0.4 W 17 22 9 12 1011.9 1011.7 11.6
27/08:30pm 9.6 6.9 9.0 96 0.3 W 13 20 7 11 1011.6 1011.4 11.6
27/08:00pm 9.8 6.7 9.0 95 0.4 WNW 15 22 8 12 1011.4 1011.2 11.6
27/07:30pm 10.0 7.0 9.2 95 0.4 W 15 24 8 13 1011.4 1011.2 11.2
27/07:00pm 10.1 7.2 9.6 97 0.3 W 15 26 8 14 1011.1 1010.9 11.2
27/06:30pm 10.2 7.4 9.9 98 0.2 SW 15 22 8 12 1010.5 1010.4 11.2
27/06:00pm 10.7 8.0 10.4 98 0.2 WSW 15 22 8 12 1010.1 1009.9 10.4
27/05:30pm 10.6 8.3 10.4 99 0.1 NW 13 20 7 11 1010.1 1009.9 7.0
27/05:00pm 10.3 5.8 10.0 98 0.2 W 24 35 13 19 1009.8 1009.6 6.8
27/04:30pm 10.1 3.7 9.3 95 0.4 WNW 33 67 18 36 1009.8 1009.6 4.4
27/04:28pm 10.4 4.9 9.3 93 0.6 WNW 28 67 15 36 1009.5 1009.3 3.8
27/04:00pm 13.0 9.1 10.9 87 1.1 WNW 22 35 12 19 1009.4 1009.2 0.0
27/03:30pm 13.3 10.2 11.5 89 1.0 WNW 19 32 10 17 1009.2 1009.0 0.0
27/03:00pm 13.2 9.5 11.4 89 1.0 WNW 22 39 12 21 1009.2 1009.0 0.0
27/02:30pm 14.4 9.8 12.4 88 1.1 WNW 28 46 15 25 1009.0 1008.8 0.0
27/02:00pm 15.0 11.4 12.9 87 1.2 NW 24 41 13 22 1009.4 1009.2 0.0
27/01:30pm 14.9 11.0 13.3 90 0.9 NW 26 39 14 21 1009.5 1009.3 0.0
27/01:00pm 15.1 10.7 13.0 87 1.2 NW 28 46 15 25 1009.6 1009.4 0.0
27/12:30pm 14.7 11.0 12.7 88 1.1 NNW 24 39 13 21 1010.1 1009.9 0.0
27/12:00pm 14.6 11.9 12.8 89 1.0 NW 19 35 10 19 1010.7 1010.6 0.0
27/11:30am 14.3 11.8 12.3 88 1.1 NW 17 32 9 17 1011.5 1011.3 0.0
27/11:00am 14.4 11.2 11.9 85 1.4 NW 20 37 11 20 1012.1 1011.9 0.0
27/10:30am 14.2 9.7 11.5 84 1.5 NW 26 35 14 19 1012.3 1012.1 0.0
27/10:00am 14.1 10.4 11.6 85 1.4 NNW 22 37 12 20 1012.6 1012.4 0.0
27/09:30am 13.8 9.5 10.8 82 1.6 NW 24 39 13 21 1012.5 1012.3 0.0
27/09:00am 14.2 9.9 10.8 80 1.8 NNW 24 39 13 21 1012.4 1012.2 0.6
27/08:30am 13.0 11.1 11.7 92 0.7 NW 13 30 7 16 1012.3 1012.1 0.6
27/08:00am 12.0 10.9 10.7 92 0.7 NW 7 15 4 8 1012.4 1012.2 0.6
27/07:30am 12.1 11.6 10.8 92 0.7 NW 4 15 2 8 1012.6 1012.4 0.6
27/07:00am 11.8 11.2 10.4 91 0.7 N 4 11 2 6 1012.7 1012.5 0.6
27/06:30am 11.8 11.1 10.2 90 0.8 WSW 4 13 2 7 1013.2 1013.1 0.6
27/06:00am 11.6 10.8 9.5 87 1.1 N 4 6 2 3 1013.1 1013.0 0.0
27/05:30am 11.5 10.6 9.4 87 1.1 ENE 4 9 2 5 1013.0 1012.9 0.0
27/05:00am 11.6 10.8 9.7 88 1.0 NE 4 7 2 4 1013.2 1013.1 0.0
27/04:30am 11.5 10.7 9.8 89 0.9 NNW 4 11 2 6 1013.5 1013.4 0.0
27/04:00am 11.8 11.1 10.0 89 0.9 NNE 4 9 2 5 1013.8 1013.7 0.0
27/03:30am 11.9 11.6 10.1 89 0.9 N 2 6 1 3 1014.3 1014.1 0.0
27/03:00am 11.6 11.2 9.9 89 0.9 N 2 7 1 4 1014.4 1014.2 0.0
27/02:30am 11.6 11.2 9.7 88 1.0 NNW 2 6 1 3 1014.5 1014.3 0.0
27/02:00am 11.9 11.1 9.5 85 1.2 NNE 4 9 2 5 1014.7 1014.5 0.0
27/01:30am 12.1 11.3 9.5 84 1.3 NNW 4 17 2 9 1014.8 1014.6 0.0
27/01:00am 12.0 11.1 9.2 83 1.4 NNW 4 13 2 7 1015.0 1014.8 0.0
27/12:30am 11.7 10.3 8.9 83 1.4 N 6 13 3 7 1015.3 1015.1 0.0
27/12:00am 12.1 11.3 9.5 84 1.3 NNW 4 13 2 7 1015.5 1015.3 0.0
 
Date/Time
CST
Temp
°C
App
Temp
°C
Dew
Point
°C
Rel
Hum
%
Delta-T
°C
Wind Press
QNH
hPa
Press
MSL
hPa
Rain since
9am
mm
Dir  Spd
km/h
Gust
km/h
Spd
kts
Gust
kts
26/11:30pm 12.5 11.5 10.2 86 1.2 NNW 6 13 3 7 1015.6 1015.5 0.0
26/11:00pm 12.5 11.4 10.6 88 1.0 NW 7 15 4 8 1015.9 1015.8 0.0
26/10:30pm 11.9 11.1 9.8 87 1.1 NNW 4 7 2 4 1016.1 1016.0 0.0
26/10:00pm 11.6 11.1 9.2 85 1.2 NNW 2 4 1 2 1016.4 1016.3 0.0
26/09:30pm 11.6 11.0 9.0 84 1.3 NNW 2 9 1 5 1016.7 1016.6 0.0
26/09:00pm 11.6 10.6 8.8 83 1.4 NNW 4 4 2 2 1016.7 1016.6 0.0
26/08:30pm 12.0 11.0 9.0 82 1.5 NNW 4 6 2 3 1016.8 1016.7 0.0
26/08:00pm 12.6 11.3 9.1 79 1.8 NNW 6 9 3 5 1016.9 1016.8 0.0
26/07:30pm 12.7 11.5 9.5 81 1.7 NNW 6 9 3 5 1016.9 1016.8 0.0
26/07:00pm 11.8 10.9 9.4 85 1.2 NNW 4 6 2 3 1017.1 1017.0 0.0
26/06:30pm 12.8 11.7 10.0 83 1.5 NNW 6 9 3 5 1017.3 1017.1 0.0
26/06:00pm 12.8 11.5 9.8 82 1.6 NNW 7 13 4 7 1017.3 1017.1 0.0
26/05:30pm 13.5 11.4 9.7 78 2.0 NNW 11 17 6 9 1017.3 1017.1 0.0
26/05:00pm 13.8 12.1 10.0 78 2.0 NW 9 15 5 8 1017.1 1017.0 0.0
26/04:30pm 14.9 14.1 10.9 77 2.2 NNW 6 11 3 6 1017.3 1017.1 0.0
26/04:00pm 15.7 15.3 11.1 74 2.5 NNW 4 9 2 5 1017.4 1017.2 0.0
26/03:30pm 15.7 14.9 10.9 73 2.6 N 6 15 3 8 1017.5 1017.3 0.0
26/03:00pm 15.9 15.4 12.1 78 2.1 NNW 6 17 3 9 1017.6 1017.4 0.0
26/02:30pm 15.3 14.7 12.2 82 1.7 NNW 7 20 4 11 1017.8 1017.6 0.0
26/02:00pm 14.8 13.6 12.7 87 1.2 NW 11 24 6 13 1018.2 1018.1 0.0
26/01:30pm 14.8 14.1 13.2 90 0.9 NW 9 15 5 8 1018.5 1018.4 0.0
26/01:00pm 13.9 13.2 13.1 95 0.4 NW 9 17 5 9 1018.9 1018.8 0.0
26/12:30pm 13.7 12.5 12.9 95 0.4 NW 11 19 6 10 1019.5 1019.4 0.0
26/12:00pm 13.8 13.4 13.0 95 0.4 NNW 7 13 4 7 1019.8 1019.7 0.0
26/11:30am 13.7 12.5 12.9 95 0.4 NW 11 20 6 11 1020.5 1020.3 0.0
26/11:00am 13.7 13.0 13.2 97 0.3 NNW 9 15 5 8 1020.9 1020.8 0.0
26/10:30am 13.2 11.7 13.0 99 0.1 NW 13 20 7 11 1021.2 1021.1 0.0
26/10:00am 13.1 12.4 13.1 100 0.0 NW 9 19 5 10 1021.4 1021.3 0.0
26/09:30am 13.0 12.6 13.0 100 0.0 NW 7 11 4 6 1021.6 1021.5 0.0
26/09:00am 12.6 13.0 12.6 100 0.0 NNW 2 6 1 3 1021.8 1021.7 1.8
26/08:30am 12.1 12.4 12.1 100 0.0 NNW 2 6 1 3 1021.8 1021.7 1.8
26/08:00am 11.5 11.6 11.5 100 0.0 NW 2 4 1 2 1021.8 1021.7 1.8
26/07:30am 11.3 11.3 11.3 100 0.0 NW 2 6 1 3 1021.6 1021.5 1.8
26/07:00am 10.7 10.9 10.7 100 0.0 CALM 0 0 0 0 1021.4 1021.3 1.8
26/06:30am 10.7 10.9 10.7 100 0.0 CALM 0 2 0 1 1021.3 1021.2 1.8
26/06:00am 10.3 10.4 10.3 100 0.0 CALM 0 2 0 1 1021.2 1021.1 1.8
26/05:30am 10.4 10.6 10.4 100 0.0 CALM 0 4 0 2 1021.1 1021.0 1.8
26/05:00am 10.2 10.3 10.2 100 0.0 CALM 0 2 0 1 1021.0 1020.9 1.8
26/04:30am 10.5 10.3 10.5 100 0.0 NNE 2 4 1 2 1020.9 1020.8 1.8
26/04:00am 11.1 10.3 11.1 100 0.0 NNE 6 6 3 3 1021.0 1020.9 1.8
26/03:30am 10.8 9.7 10.8 100 0.0 E 7 9 4 5 1021.0 1020.9 1.8
26/03:00am 10.5 9.6 10.5 100 0.0 ESE 6 6 3 3 1021.2 1021.1 1.8
26/02:30am 10.6 9.7 10.6 100 0.0 ESE 6 6 3 3 1021.3 1021.2 1.6
26/02:00am 10.3 9.3 10.3 100 0.0 ESE 6 7 3 4 1021.2 1021.1 1.6
26/01:30am 10.5 9.6 10.5 100 0.0 ESE 6 6 3 3 1021.3 1021.2 1.6
26/01:00am 10.6 9.7 10.6 100 0.0 ESE 6 7 3 4 1021.4 1021.3 1.6
26/12:30am 10.7 9.6 10.7 100 0.0 ESE 7 9 4 5 1021.6 1021.5 1.6
26/12:00am 10.8 9.9 10.6 99 0.1 SE 6 9 3 5 1021.6 1021.5 1.6
 
Date/Time
CST
Temp
°C
App
Temp
°C
Dew
Point
°C
Rel
Hum
%
Delta-T
°C
Wind Press
QNH
hPa
Press
MSL
hPa
Rain since
9am
mm
Dir  Spd
km/h
Gust
km/h
Spd
kts
Gust
kts
25/11:30pm 11.0 10.1 10.8 99 0.1 S 6 7 3 4 1021.7 1021.6 1.6
25/11:00pm 11.1 10.1 10.9 99 0.1 S 7 9 4 5 1021.7 1021.6 1.6
25/10:30pm 11.5 10.2 11.3 99 0.1 SSW 9 11 5 6 1021.8 1021.7 1.6
25/10:00pm 11.7 10.5 11.5 99 0.1 SSW 9 11 5 6 1021.8 1021.7 1.6
25/09:30pm 12.4 11.4 12.2 99 0.1 SW 9 15 5 8 1021.9 1021.8 1.6
25/09:00pm 12.6 12.0 12.4 99 0.1 SSW 7 13 4 7 1021.9 1021.8 1.6
25/08:30pm 12.7 12.3 12.5 99 0.1 SW 6 9 3 5 1021.6 1021.5 1.6
25/08:00pm 12.9 12.0 12.7 99 0.1 SW 9 15 5 8 1021.4 1021.3 1.6
25/07:30pm 13.4 12.3 13.2 99 0.1 WSW 11 20 6 11 1021.3 1021.2 1.4
25/07:00pm 13.3 12.9 13.0 98 0.2 WNW 7 9 4 5 1021.2 1021.1 0.0
25/06:30pm 13.3 12.2 13.0 98 0.2 WNW 11 17 6 9 1021.1 1021.0 0.0
25/06:00pm 13.1 12.6 12.5 96 0.3 WNW 7 13 4 7 1020.9 1020.8 0.0
25/05:30pm 13.7 11.3 12.8 94 0.5 WNW 17 24 9 13 1020.5 1020.3 0.0
25/05:00pm 14.4 11.7 12.8 90 0.9 WNW 19 30 10 16 1020.2 1020.1 0.0
25/04:30pm 14.4 12.4 12.6 89 1.0 WNW 15 24 8 13 1020.4 1020.2 0.0

Latest Capital City Observations: Canberra | Sydney | Melbourne | Brisbane | Adelaide | Perth | Hobart | Darwin

Other Formats:

Comma delimited format used in spreadsheet applications
http://www.bom.gov.au/fwo/IDS60901/IDS60901.94811.axf

JavaScript Object Notation format (JSON) in row-major order
http://www.bom.gov.au/fwo/IDS60901/IDS60901.94811.json